Time;durP1;ratioP1;P1;durP2;ratioP2;P2;SDS_P1;SDS_P2;PMS_P1;PMS_P2;Temp;Humidity;BMP_temperature;BMP_pressure;BME280_temperature;BME280_humidity;BME280_pressure;Samples;Min_cycle;Max_cycle;Signal;HPM_P1;HPM_P2
2020/12/17 00:00:29;;;;;;;78.93;36.97;;;2.80;95.10;;;;;;5090645;28;20463;-73
2020/12/17 00:02:57;;;;;;;77.13;36.92;;;2.80;95.20;;;;;;5087380;28;20508;-72
2020/12/17 00:05:24;;;;;;;80.85;37.13;;;2.80;95.00;;;;;;5073094;28;20402;-73
2020/12/17 00:07:52;;;;;;;78.97;36.70;;;2.80;95.00;;;;;;5087397;28;20410;-73
2020/12/17 00:10:21;;;;;;;79.03;36.80;;;2.80;95.10;;;;;;5072615;28;20803;-73
2020/12/17 00:12:48;;;;;;;80.13;36.83;;;2.90;95.00;;;;;;5069385;28;20430;-73
2020/12/17 00:15:17;;;;;;;80.47;35.80;;;2.80;94.90;;;;;;5090671;28;20439;-73
2020/12/17 00:17:48;;;;;;;77.70;35.80;;;2.80;95.00;;;;;;5087717;28;20398;-72
2020/12/17 00:20:20;;;;;;;76.03;36.60;;;2.90;95.00;;;;;;5091020;28;20430;-73
2020/12/17 00:22:49;;;;;;;80.87;36.73;;;2.80;95.10;;;;;;5064278;28;20462;-72
2020/12/17 00:25:20;;;;;;;79.57;37.15;;;2.80;95.10;;;;;;5053206;28;20782;-72
2020/12/17 00:27:47;;;;;;;80.13;38.08;;;2.80;95.00;;;;;;5070705;28;20934;-72
2020/12/17 00:30:17;;;;;;;82.43;36.88;;;2.80;95.10;;;;;;5089989;28;20532;-73
2020/12/17 00:32:51;;;;;;;88.10;41.95;;;2.80;95.10;;;;;;5087693;28;20394;-73
2020/12/17 00:35:20;;;;;;;84.57;37.72;;;2.80;95.10;;;;;;5090170;28;20413;-72
2020/12/17 00:37:51;;;;;;;81.82;38.85;;;2.90;95.10;;;;;;5072517;28;20406;-73
2020/12/17 00:40:22;;;;;;;74.82;35.85;;;2.90;94.80;;;;;;5069928;28;20413;-72
2020/12/17 00:42:51;;;;;;;75.30;36.83;;;2.90;94.70;;;;;;5072794;28;21151;-72
2020/12/17 00:45:18;;;;;;;77.18;37.08;;;2.80;94.90;;;;;;5068899;28;20410;-73
2020/12/17 00:47:44;;;;;;;79.55;38.08;;;2.80;95.00;;;;;;5090261;28;20491;-72
2020/12/17 00:50:13;;;;;;;85.75;38.90;;;2.80;94.90;;;;;;5069005;28;20429;-72
2020/12/17 00:52:42;;;;;;;82.93;37.30;;;2.70;95.00;;;;;;5090040;28;20920;-72
2020/12/17 00:55:12;;;;;;;82.70;37.80;;;2.80;95.10;;;;;;5086836;28;20471;-73
2020/12/17 00:57:38;;;;;;;79.03;37.20;;;2.70;95.20;;;;;;5072934;28;20402;-72
2020/12/17 01:00:07;;;;;;;79.00;36.83;;;2.80;95.10;;;;;;5069073;28;20511;-72
2020/12/17 01:02:38;;;;;;;75.70;35.55;;;2.70;95.20;;;;;;5072346;28;20907;-72
2020/12/17 01:05:05;;;;;;;75.13;34.90;;;2.70;95.30;;;;;;5091021;28;20420;-73
2020/12/17 01:07:32;;;;;;;76.07;35.17;;;2.70;95.30;;;;;;5092740;28;20438;-73
2020/12/17 01:10:02;;;;;;;71.13;33.83;;;2.80;95.30;;;;;;5087569;28;20416;-72
2020/12/17 01:12:31;;;;;;;78.90;35.85;;;2.80;95.30;;;;;;5072488;28;20421;-73
2020/12/17 01:15:00;;;;;;;74.07;33.92;;;2.80;95.00;;;;;;5072000;28;20405;-73
2020/12/17 01:17:26;;;;;;;75.93;35.50;;;2.80;95.10;;;;;;5068546;28;20401;-73
2020/12/17 01:19:53;;;;;;;69.25;33.22;;;2.80;95.10;;;;;;5089901;28;20450;-73
2020/12/17 01:22:20;;;;;;;71.05;35.08;;;2.70;95.00;;;;;;5068631;28;20430;-73
2020/12/17 01:24:49;;;;;;;70.65;33.45;;;2.80;95.10;;;;;;5072071;28;20905;-72
2020/12/17 01:27:18;;;;;;;71.82;33.22;;;2.80;94.80;;;;;;5069499;28;20410;-73
2020/12/17 01:29:49;;;;;;;67.70;33.70;;;2.80;94.90;;;;;;5075535;28;20418;-72
2020/12/17 01:32:18;;;;;;;68.68;33.28;;;2.70;95.00;;;;;;5090026;28;20413;-73
2020/12/17 01:34:46;;;;;;;76.18;34.15;;;2.80;95.00;;;;;;5075817;28;20593;-73
2020/12/17 01:37:21;;;;;;;72.57;34.40;;;2.70;95.00;;;;;;5090124;28;20425;-72
2020/12/17 01:39:49;;;;;;;71.47;33.63;;;2.70;95.20;;;;;;5075759;28;20409;-72
2020/12/17 01:42:17;;;;;;;71.63;34.83;;;2.70;95.20;;;;;;5089874;28;20413;-72
2020/12/17 01:44:46;;;;;;;75.05;34.55;;;2.70;95.20;;;;;;5075715;28;20405;-72
2020/12/17 01:47:13;;;;;;;70.32;33.70;;;2.70;95.20;;;;;;5072089;28;20497;-72
2020/12/17 01:49:42;;;;;;;73.03;34.97;;;2.70;95.10;;;;;;5075420;28;20430;-73
2020/12/17 01:52:08;;;;;;;76.68;35.53;;;2.70;95.20;;;;;;5092809;28;20862;-72
2020/12/17 01:54:35;;;;;;;73.57;35.20;;;2.70;95.20;;;;;;5072925;28;20402;-72
2020/12/17 01:57:04;;;;;;;72.97;34.80;;;2.70;95.20;;;;;;5075108;28;20780;-73
2020/12/17 01:59:50;;;;;;;73.63;34.90;;;2.70;95.10;;;;;;5071507;28;20441;-72
2020/12/17 02:02:19;;;;;;;76.25;34.88;;;2.70;95.00;;;;;;5093121;28;20798;-72
2020/12/17 02:04:49;;;;;;;76.47;34.40;;;2.70;95.20;;;;;;5090208;28;20422;-72
2020/12/17 02:07:15;;;;;;;73.40;34.17;;;2.70;95.20;;;;;;5075295;28;20410;-72
2020/12/17 02:09:45;;;;;;;71.97;33.65;;;2.70;95.30;;;;;;5089363;28;20429;-73
2020/12/17 02:12:11;;;;;;;74.93;35.22;;;2.70;95.30;;;;;;5092551;28;21029;-72
2020/12/17 02:14:37;;;;;;;73.45;34.35;;;2.70;95.30;;;;;;5089306;28;20437;-72
2020/12/17 02:17:04;;;;;;;72.88;33.13;;;2.70;95.30;;;;;;5074870;28;20781;-72
2020/12/17 02:19:30;;;;;;;74.60;34.40;;;2.70;95.30;;;;;;5071411;28;20505;-72
2020/12/17 02:21:59;;;;;;;70.78;33.45;;;2.70;95.20;;;;;;5074816;28;20406;-72
2020/12/17 02:24:28;;;;;;;69.88;34.00;;;2.70;95.10;;;;;;5071322;28;20406;-73
2020/12/17 02:26:54;;;;;;;72.95;34.67;;;2.70;95.20;;;;;;5075234;28;20467;-72
2020/12/17 02:29:21;;;;;;;74.15;33.85;;;2.70;95.10;;;;;;5071813;28;20418;-72
2020/12/17 02:31:48;;;;;;;72.57;34.97;;;2.70;95.00;;;;;;5074420;28;20519;-72
2020/12/17 02:34:14;;;;;;;65.40;32.77;;;2.60;95.10;;;;;;5074586;28;20456;-73
2020/12/17 02:36:43;;;;;;;74.53;34.30;;;2.60;95.20;;;;;;5071290;28;20784;-73
2020/12/17 02:39:12;;;;;;;66.82;32.58;;;2.60;95.30;;;;;;5092277;28;20483;-72
2020/12/17 02:41:39;;;;;;;69.20;33.75;;;2.70;95.30;;;;;;5072348;28;20409;-72
2020/12/17 02:44:05;;;;;;;72.57;34.30;;;2.70;95.10;;;;;;5074030;28;20418;-72
2020/12/17 02:46:34;;;;;;;65.38;32.92;;;2.70;95.10;;;;;;5070927;28;20477;-73
2020/12/17 02:49:00;;;;;;;69.72;33.92;;;2.70;95.10;;;;;;5092430;28;20879;-73
2020/12/17 02:51:29;;;;;;;71.95;35.17;;;2.70;95.10;;;;;;5070961;28;21006;-72
2020/12/17 02:53:55;;;;;;;67.55;33.70;;;2.70;95.10;;;;;;5074705;28;20402;-73
2020/12/17 02:56:22;;;;;;;75.57;33.78;;;2.60;95.20;;;;;;5067339;28;20412;-73
2020/12/17 02:58:48;;;;;;;67.03;33.30;;;2.60;95.20;;;;;;5070755;28;20407;-72
2020/12/17 03:01:17;;;;;;;69.07;34.35;;;2.60;95.20;;;;;;5070446;28;20470;-72
2020/12/17 03:03:44;;;;;;;63.22;32.50;;;2.60;95.20;;;;;;5074467;28;20449;-73
2020/12/17 03:06:12;;;;;;;66.60;33.55;;;2.80;94.60;;;;;;5074147;28;20794;-73
2020/12/17 03:08:39;;;;;;;67.05;33.33;;;2.70;95.10;;;;;;5070277;28;20413;-72
2020/12/17 03:11:05;;;;;;;70.97;33.13;;;2.70;95.00;;;;;;5074322;28;20825;-72
2020/12/17 03:13:32;;;;;;;70.22;34.00;;;2.60;95.10;;;;;;5087640;28;20402;-72
2020/12/17 03:16:01;;;;;;;68.50;33.45;;;2.70;95.10;;;;;;5073848;28;20410;-72
2020/12/17 03:18:27;;;;;;;70.22;33.83;;;2.60;95.10;;;;;;5070174;28;20769;-73
2020/12/17 03:20:56;;;;;;;67.47;33.47;;;2.60;95.20;;;;;;5073820;28;20724;-72
2020/12/17 03:23:23;;;;;;;68.43;33.05;;;2.60;95.30;;;;;;5087879;28;20796;-72
2020/12/17 03:25:54;;;;;;;69.45;32.35;;;2.60;95.40;;;;;;5073753;28;20940;-73
2020/12/17 03:28:21;;;;;;;68.97;33.17;;;2.60;95.30;;;;;;5087746;28;20495;-73
2020/12/17 03:30:47;;;;;;;67.80;33.17;;;2.60;95.30;;;;;;5091122;28;20426;-72
2020/12/17 03:33:14;;;;;;;70.18;33.40;;;2.60;95.30;;;;;;5070191;28;20443;-73
2020/12/17 03:35:42;;;;;;;72.65;34.55;;;2.60;95.30;;;;;;5073365;28;20426;-72
2020/12/17 03:38:10;;;;;;;68.88;32.28;;;2.60;95.30;;;;;;5070563;28;20483;-73
2020/12/17 03:40:39;;;;;;;67.75;33.13;;;2.60;95.30;;;;;;5070095;28;20458;-72
2020/12/17 03:43:09;;;;;;;68.40;33.03;;;2.60;95.30;;;;;;5069947;28;20527;-72
2020/12/17 03:45:37;;;;;;;62.83;32.17;;;2.60;95.30;;;;;;5066400;28;20419;-72
2020/12/17 03:48:03;;;;;;;69.25;34.42;;;2.60;95.30;;;;;;5069832;28;20455;-72
2020/12/17 03:50:30;;;;;;;67.82;33.03;;;2.60;95.30;;;;;;5068599;28;20430;-72
2020/12/17 03:52:59;;;;;;;70.97;34.00;;;2.60;95.40;;;;;;5091026;28;20417;-72
2020/12/17 03:55:25;;;;;;;66.13;33.67;;;2.60;95.40;;;;;;5087249;28;20451;-73
2020/12/17 03:57:54;;;;;;;72.63;34.05;;;2.60;95.40;;;;;;5073281;28;20562;-73
2020/12/17 04:00:22;;;;;;;67.75;34.15;;;2.60;95.30;;;;;;5087160;28;20413;-73
2020/12/17 04:02:53;;;;;;;70.18;33.42;;;2.60;95.40;;;;;;5091121;28;20561;-73
2020/12/17 04:05:20;;;;;;;65.03;33.60;;;2.60;95.50;;;;;;5069273;28;20432;-72
2020/12/17 04:07:46;;;;;;;66.88;32.00;;;2.60;95.40;;;;;;5073021;28;20539;-72
2020/12/17 04:10:13;;;;;;;65.03;32.30;;;2.60;95.20;;;;;;5069590;28;20434;-72
2020/12/17 04:12:41;;;;;;;62.67;31.48;;;2.60;95.10;;;;;;5073033;28;20402;-72
2020/12/17 04:15:08;;;;;;;64.57;32.30;;;2.60;95.20;;;;;;5072512;28;20515;-73
2020/12/17 04:17:39;;;;;;;68.47;32.92;;;2.60;95.20;;;;;;5069649;28;20418;-73
2020/12/17 04:20:08;;;;;;;65.17;32.40;;;2.60;95.20;;;;;;5072861;28;20422;-72
2020/12/17 04:22:35;;;;;;;68.28;33.75;;;2.60;95.20;;;;;;5069514;28;20420;-73
2020/12/17 04:25:01;;;;;;;66.67;33.37;;;2.60;95.20;;;;;;5072846;28;20475;-73
2020/12/17 04:27:27;;;;;;;69.55;33.38;;;2.60;95.30;;;;;;5086871;28;20410;-73
2020/12/17 04:29:54;;;;;;;65.68;34.40;;;2.60;95.20;;;;;;5090050;28;20457;-72
2020/12/17 04:32:22;;;;;;;75.55;33.97;;;2.60;95.20;;;;;;5087356;28;20405;-72
2020/12/17 04:34:49;;;;;;;64.93;33.88;;;2.60;95.30;;;;;;5072296;28;20422;-73
2020/12/17 04:37:16;;;;;;;75.90;34.88;;;2.60;95.30;;;;;;5069439;28;20718;-72
2020/12/17 04:39:47;;;;;;;64.22;32.80;;;2.60;95.30;;;;;;5090461;28;21004;-72
2020/12/17 04:42:17;;;;;;;68.45;32.78;;;2.60;95.30;;;;;;5086806;28;20421;-73
2020/12/17 04:44:44;;;;;;;63.60;32.55;;;2.60;95.00;;;;;;5072659;28;20503;-72
2020/12/17 04:47:19;;;;;;;64.07;33.17;;;2.60;95.10;;;;;;5069042;28;20456;-73
2020/12/17 04:50:01;;;;;;;70.05;33.60;;;2.60;95.20;;;;;;5072108;28;20807;-73
2020/12/17 04:52:29;;;;;;;70.07;34.20;;;2.60;95.20;;;;;;5086891;28;20398;-72
2020/12/17 04:55:01;;;;;;;68.40;32.67;;;2.60;95.30;;;;;;5072663;28;20421;-72
2020/12/17 04:57:31;;;;;;;72.15;34.00;;;2.60;95.40;;;;;;5090411;28;20406;-72
2020/12/17 05:00:00;;;;;;;68.97;33.33;;;2.60;95.40;;;;;;5068867;28;20445;-73
2020/12/17 05:02:27;;;;;;;67.43;32.28;;;2.50;95.40;;;;;;5092707;28;20575;-72
2020/12/17 05:04:54;;;;;;;68.85;33.40;;;2.60;95.40;;;;;;5072942;28;20406;-72
2020/12/17 05:07:25;;;;;;;63.92;31.83;;;2.60;95.40;;;;;;5094220;28;20405;-72
2020/12/17 05:09:52;;;;;;;63.83;32.42;;;2.60;95.40;;;;;;5072718;28;20916;-73
2020/12/17 05:12:21;;;;;;;67.03;34.50;;;2.60;95.40;;;;;;5076312;28;20436;-72
2020/12/17 05:14:48;;;;;;;73.25;38.85;;;2.60;95.40;;;;;;5069176;28;20420;-72
2020/12/17 05:17:17;;;;;;;74.68;36.70;;;2.60;95.40;;;;;;5056386;28;20408;-72
2020/12/17 05:19:44;;;;;;;67.65;35.65;;;2.60;95.30;;;;;;5077977;28;20410;-72
2020/12/17 05:22:15;;;;;;;69.03;36.20;;;2.60;95.30;;;;;;5094306;28;20433;-73
2020/12/17 05:24:46;;;;;;;63.30;32.10;;;2.60;95.40;;;;;;5072767;28;20405;-73
2020/12/17 05:27:16;;;;;;;62.63;30.55;;;2.60;95.30;;;;;;5075457;28;20453;-73
2020/12/17 05:29:43;;;;;;;59.47;30.27;;;2.60;95.40;;;;;;5072215;28;20445;-73
2020/12/17 05:32:17;;;;;;;57.83;28.30;;;2.60;95.30;;;;;;5076052;28;20402;-72
2020/12/17 05:34:44;;;;;;;49.38;25.08;;;2.60;95.20;;;;;;5091745;28;20479;-72
2020/12/17 05:37:13;;;;;;;56.67;27.38;;;2.60;95.00;;;;;;5071761;28;20407;-73
2020/12/17 05:39:54;;;;;;;56.03;28.95;;;2.60;95.10;;;;;;5057405;28;20751;-73
2020/12/17 05:42:20;;;;;;;59.83;30.58;;;2.60;95.20;;;;;;5072258;28;20463;-72
2020/12/17 05:44:46;;;;;;;61.60;30.47;;;2.60;95.20;;;;;;5093596;28;20417;-73
2020/12/17 05:47:16;;;;;;;64.57;31.10;;;2.60;95.30;;;;;;5071814;28;20445;-73
2020/12/17 05:49:42;;;;;;;60.80;29.00;;;2.60;95.30;;;;;;5075678;28;20507;-73
2020/12/17 05:52:08;;;;;;;55.42;28.77;;;2.60;95.30;;;;;;5071871;28;20915;-72
2020/12/17 05:54:35;;;;;;;51.78;25.70;;;2.60;95.20;;;;;;5092545;28;20442;-72
2020/12/17 05:57:14;;;;;;;30.88;16.50;;;2.60;95.10;;;;;;5098671;28;20501;-73
2020/12/17 05:59:53;;;;;;;21.23;11.90;;;2.60;94.80;;;;;;5086033;28;20789;-73
2020/12/17 06:02:20;;;;;;;24.17;12.80;;;2.60;94.00;;;;;;5072158;28;20463;-73
2020/12/17 06:05:01;;;;;;;22.77;13.20;;;2.60;94.10;;;;;;5093275;28;20792;-72
2020/12/17 06:07:48;;;;;;;20.58;12.43;;;2.60;93.90;;;;;;5071940;28;20893;-73
2020/12/17 06:10:27;;;;;;;22.52;12.38;;;2.60;93.80;;;;;;5093050;28;20937;-72
2020/12/17 06:12:59;;;;;;;21.90;12.43;;;2.60;93.80;;;;;;5071257;28;20509;-72
2020/12/17 06:15:30;;;;;;;21.15;11.27;;;2.60;93.70;;;;;;5092494;28;20475;-73
2020/12/17 06:18:03;;;;;;;16.95;10.32;;;2.60;93.60;;;;;;5068709;28;20419;-73
2020/12/17 06:20:33;;;;;;;17.45;10.55;;;2.80;93.10;;;;;;5055185;28;20460;-72
2020/12/17 06:23:02;;;;;;;18.75;11.02;;;2.70;92.90;;;;;;5071079;28;20482;-73
2020/12/17 06:25:32;;;;;;;18.35;10.70;;;2.60;93.20;;;;;;5074676;28;20870;-72
2020/12/17 06:27:59;;;;;;;16.63;9.75;;;2.60;93.50;;;;;;5089150;28;21073;-73
2020/12/17 06:30:30;;;;;;;15.90;9.80;;;2.60;93.40;;;;;;5092179;28;20929;-72
2020/12/17 06:33:03;;;;;;;15.90;9.65;;;2.60;93.30;;;;;;5074696;28;20471;-73
2020/12/17 06:36:03;;;;;;;12.63;7.88;;;2.70;93.10;;;;;;5073788;28;20440;-72
2020/12/17 06:38:30;;;;;;;11.55;7.78;;;2.80;92.60;;;;;;5089179;28;20783;-72
2020/12/17 06:41:14;;;;;;;14.18;7.93;;;2.90;92.20;;;;;;5074913;28;20524;-72
2020/12/17 06:43:41;;;;;;;13.75;8.52;;;2.90;91.80;;;;;;5072542;28;20433;-73
2020/12/17 06:46:31;;;;;;;14.87;9.13;;;2.80;92.30;;;;;;5054261;28;20403;-72
2020/12/17 06:49:07;;;;;;;14.30;8.90;;;2.70;92.80;;;;;;5052044;28;20414;-72
2020/12/17 06:51:36;;;;;;;15.15;9.05;;;2.60;93.00;;;;;;5054082;28;20444;-72
2020/12/17 06:54:27;;;;;;;14.43;8.57;;;2.60;93.10;;;;;;5054322;28;20408;-72
2020/12/17 06:57:19;;;;;;;15.25;9.02;;;2.60;93.10;;;;;;5063591;28;20461;-72
2020/12/17 07:00:07;;;;;;;13.70;8.80;;;2.60;93.80;;;;;;5058390;28;20445;-72
2020/12/17 07:02:41;;;;;;;15.00;8.85;;;2.60;93.30;;;;;;5074508;28;20418;-72
2020/12/17 07:05:32;;;;;;;14.23;8.60;;;2.60;93.30;;;;;;5088617;28;20487;-72
2020/12/17 07:07:59;;;;;;;13.38;8.32;;;2.60;93.30;;;;;;5082284;28;20477;-73
2020/12/17 07:10:27;;;;;;;12.93;8.52;;;2.60;93.40;;;;;;5070583;28;20455;-72
2020/12/17 07:12:56;;;;;;;10.77;7.55;;;2.50;93.40;;;;;;5074072;28;20406;-72
2020/12/17 07:15:36;;;;;;;12.77;7.87;;;2.60;93.00;;;;;;5090474;28;20428;-72
2020/12/17 07:18:25;;;;;;;12.07;7.70;;;2.60;93.00;;;;;;5054157;28;20461;-72
2020/12/17 07:21:04;;;;;;;12.60;8.02;;;2.60;93.20;;;;;;5071344;28;20417;-72
2020/12/17 07:23:32;;;;;;;16.00;9.43;;;2.50;93.20;;;;;;5068324;28;20483;-72
2020/12/17 07:26:06;;;;;;;15.27;9.27;;;2.60;93.40;;;;;;5056337;28;20465;-72
2020/12/17 07:28:33;;;;;;;17.10;10.00;;;2.60;93.50;;;;;;5053513;28;20848;-72
2020/12/17 07:30:59;;;;;;;14.13;8.95;;;2.60;93.40;;;;;;5084761;28;20461;-72
2020/12/17 07:33:52;;;;;;;15.70;9.20;;;2.60;93.20;;;;;;5070174;28;20885;-72
2020/12/17 07:36:48;;;;;;;15.30;9.40;;;2.60;93.30;;;;;;5070412;28;20475;-73
2020/12/17 07:39:17;;;;;;;14.53;8.60;;;2.60;93.50;;;;;;5075982;28;20890;-72
2020/12/17 07:41:46;;;;;;;14.90;9.40;;;2.60;93.30;;;;;;5094021;28;20473;-72
2020/12/17 07:44:15;;;;;;;18.98;10.52;;;2.60;93.20;;;;;;5052179;28;21192;-72
2020/12/17 07:46:42;;;;;;;18.65;11.20;;;2.60;93.20;;;;;;5053726;28;20457;-72
2020/12/17 07:49:22;;;;;;;21.02;11.57;;;2.60;93.30;;;;;;5066207;28;20467;-72
2020/12/17 07:51:51;;;;;;;19.30;11.52;;;2.60;93.40;;;;;;5073706;28;20410;-72
2020/12/17 07:54:20;;;;;;;15.15;9.70;;;2.70;92.90;;;;;;5069743;28;20402;-72
2020/12/17 07:56:57;;;;;;;17.17;9.65;;;2.70;92.90;;;;;;5072396;28;20885;-73
2020/12/17 07:59:26;;;;;;;15.80;9.75;;;2.60;93.00;;;;;;5085666;28;20471;-72
2020/12/17 08:01:59;;;;;;;20.67;12.07;;;2.60;93.20;;;;;;5090861;28;20414;-73
2020/12/17 08:04:25;;;;;;;16.50;10.82;;;2.60;93.20;;;;;;5070342;28;20453;-72
2020/12/17 08:06:52;;;;;;;17.63;10.43;;;2.60;93.10;;;;;;5073884;28;20409;-73
2020/12/17 08:09:23;;;;;;;17.30;9.70;;;2.60;93.30;;;;;;5068140;28;20479;-72
2020/12/17 08:11:55;;;;;;;15.48;9.70;;;2.50;93.20;;;;;;5090066;28;20406;-72
2020/12/17 08:14:24;;;;;;;17.60;10.43;;;2.50;93.40;;;;;;5086627;28;20428;-73
2020/12/17 08:17:06;;;;;;;15.50;9.35;;;2.50;93.30;;;;;;5072416;28;20402;-72
2020/12/17 08:19:33;;;;;;;14.90;9.25;;;2.60;93.40;;;;;;5086332;28;21059;-72
2020/12/17 08:22:03;;;;;;;16.10;9.65;;;2.70;93.00;;;;;;5089801;28;20773;-73
2020/12/17 08:24:32;;;;;;;16.08;9.63;;;2.70;93.00;;;;;;5069152;28;20420;-72
2020/12/17 08:26:59;;;;;;;15.93;9.65;;;2.70;93.00;;;;;;5090040;28;20409;-72
2020/12/17 08:29:30;;;;;;;16.80;10.20;;;2.70;93.00;;;;;;5072481;28;20414;-72
2020/12/17 08:32:00;;;;;;;17.92;10.57;;;2.60;93.40;;;;;;5086860;28;20716;-72
2020/12/17 08:34:26;;;;;;;18.60;11.77;;;2.60;93.50;;;;;;5072640;28;20414;-72
2020/12/17 08:36:55;;;;;;;17.17;11.20;;;2.60;93.70;;;;;;5089058;28;20409;-72
2020/12/17 08:39:22;;;;;;;20.02;12.82;;;2.60;93.80;;;;;;5077234;28;20413;-72
2020/12/17 08:41:51;;;;;;;26.05;16.50;;;2.70;93.90;;;;;;5069757;28;20419;-72
2020/12/17 08:44:25;;;;;;;18.65;11.77;;;2.70;93.80;;;;;;5072271;28;20407;-72
2020/12/17 08:46:58;;;;;;;17.35;11.02;;;2.70;93.60;;;;;;5081515;28;20798;-72
2020/12/17 08:49:27;;;;;;;16.10;10.77;;;2.60;93.60;;;;;;5076109;28;20398;-73
2020/12/17 08:51:54;;;;;;;17.77;11.82;;;2.60;93.70;;;;;;5069514;28;20469;-73
2020/12/17 08:54:32;;;;;;;19.85;12.00;;;2.70;93.90;;;;;;5073853;28;20403;-72
2020/12/17 08:57:03;;;;;;;23.20;13.50;;;2.70;93.90;;;;;;5077693;28;20479;-73
2020/12/17 08:59:29;;;;;;;21.17;12.55;;;2.70;93.70;;;;;;5076164;28;20503;-73
2020/12/17 09:01:59;;;;;;;19.27;11.05;;;2.80;93.80;;;;;;5073055;28;20445;-72
2020/12/17 09:04:29;;;;;;;16.20;9.95;;;2.80;93.40;;;;;;5094273;28;20422;-72
2020/12/17 09:07:00;;;;;;;17.63;10.82;;;2.70;93.20;;;;;;5091777;28;20477;-72
2020/12/17 09:09:31;;;;;;;17.75;11.05;;;2.70;93.40;;;;;;5094099;28;20490;-73
2020/12/17 09:12:06;;;;;;;17.55;10.95;;;2.70;93.60;;;;;;5073913;28;20404;-73
2020/12/17 09:14:37;;;;;;;17.08;10.35;;;2.70;93.70;;;;;;5093624;28;20485;-73
2020/12/17 09:17:15;;;;;;;17.27;10.80;;;2.70;93.70;;;;;;5094336;28;20455;-72
2020/12/17 09:19:43;;;;;;;18.25;11.77;;;2.70;93.70;;;;;;5074087;28;20414;-73
2020/12/17 09:22:10;;;;;;;18.92;11.48;;;2.70;93.70;;;;;;5076260;28;20441;-72
2020/12/17 09:24:47;;;;;;;18.17;10.95;;;2.70;93.70;;;;;;5090237;28;20467;-72
2020/12/17 09:27:21;;;;;;;18.95;11.23;;;2.70;93.80;;;;;;5094233;28;20406;-72
2020/12/17 09:30:06;;;;;;;19.92;11.95;;;2.70;93.90;;;;;;5071399;28;20425;-73
2020/12/17 09:32:35;;;;;;;21.75;12.80;;;2.70;93.80;;;;;;5093816;28;20452;-73
2020/12/17 09:35:07;;;;;;;18.70;12.23;;;2.80;94.00;;;;;;5058354;28;20885;-73
2020/12/17 09:37:34;;;;;;;18.20;11.73;;;2.80;93.90;;;;;;5073353;28;20858;-73
2020/12/17 09:40:08;;;;;;;18.70;11.73;;;2.80;93.70;;;;;;5065418;28;20508;-73
2020/12/17 09:42:36;;;;;;;19.88;11.70;;;2.80;93.70;;;;;;5076034;28;20410;-72
2020/12/17 09:45:20;;;;;;;20.50;12.40;;;2.80;93.60;;;;;;5080182;28;20879;-72
2020/12/17 09:47:48;;;;;;;19.42;11.82;;;2.80;93.70;;;;;;5054490;28;20408;-72
2020/12/17 09:50:19;;;;;;;19.08;11.45;;;2.90;93.60;;;;;;5061844;28;20425;-73
2020/12/17 09:52:48;;;;;;;20.00;11.82;;;2.90;93.70;;;;;;5075678;28;20481;-72
2020/12/17 09:55:14;;;;;;;20.55;11.88;;;2.90;93.60;;;;;;5071006;28;20426;-73
2020/12/17 09:57:51;;;;;;;21.35;12.18;;;2.90;93.50;;;;;;5075684;28;20909;-73
2020/12/17 10:00:19;;;;;;;23.10;12.85;;;2.90;93.60;;;;;;5071693;28;20449;-73
2020/12/17 10:02:45;;;;;;;23.97;14.00;;;2.90;93.80;;;;;;5074229;28;20402;-73
2020/12/17 10:05:20;;;;;;;23.30;14.38;;;2.90;93.70;;;;;;5071982;28;20781;-73
2020/12/17 10:07:56;;;;;;;23.30;13.60;;;2.90;93.60;;;;;;5074905;28;20486;-73
2020/12/17 10:10:46;;;;;;;22.67;13.25;;;3.00;93.70;;;;;;5085918;28;20488;-73
2020/12/17 10:13:20;;;;;;;21.48;13.52;;;3.10;93.50;;;;;;5074355;28;20402;-73
2020/12/17 10:15:48;;;;;;;26.10;15.10;;;3.00;93.40;;;;;;5072711;28;20418;-73
2020/12/17 10:18:28;;;;;;;40.20;21.33;;;3.00;93.70;;;;;;5113177;28;20412;-73
2020/12/17 10:21:18;;;;;;;26.20;14.63;;;3.00;93.40;;;;;;5110083;28;20809;-73
2020/12/17 10:24:05;;;;;;;34.25;17.65;;;3.10;93.30;;;;;;5024634;28;20852;-73
2020/12/17 10:26:49;;;;;;;28.42;15.70;;;3.00;93.50;;;;;;5054586;28;20731;-73
2020/12/17 10:29:27;;;;;;;26.02;14.15;;;3.00;93.80;;;;;;5076085;28;20405;-73
2020/12/17 10:32:01;;;;;;;23.90;14.05;;;3.00;93.90;;;;;;5072047;28;20459;-73
2020/12/17 10:34:41;;;;;;;26.40;17.20;;;3.00;93.70;;;;;;5092143;28;20454;-73
2020/12/17 10:37:13;;;;;;;23.52;13.48;;;3.10;93.70;;;;;;5071652;28;20402;-73
2020/12/17 10:40:05;;;;;;;23.55;12.95;;;3.10;93.30;;;;;;5065787;28;20523;-73
2020/12/17 10:42:44;;;;;;;23.77;14.13;;;3.20;93.30;;;;;;5055998;28;20533;-73
2020/12/17 10:45:28;;;;;;;20.35;13.07;;;3.20;93.50;;;;;;5075371;28;20406;-73
2020/12/17 10:48:17;;;;;;;22.27;13.10;;;3.10;93.50;;;;;;5073168;28;20402;-73
2020/12/17 10:51:05;;;;;;;23.63;14.80;;;3.10;93.40;;;;;;5074626;28;20418;-73
2020/12/17 10:53:54;;;;;;;;;;;;;;;;;;;;;
2020/12/17 10:56:31;;;;;;;24.77;14.02;;;3.20;93.60;;;;;;5092238;28;20417;-73
2020/12/17 10:59:10;;;;;;;21.98;13.20;;;3.10;93.50;;;;;;5072082;28;20402;-73
2020/12/17 11:01:43;;;;;;;19.90;11.35;;;3.10;93.50;;;;;;5092013;28;20452;-73
2020/12/17 11:04:16;;;;;;;21.38;13.20;;;3.20;93.30;;;;;;5087723;28;20406;-73
2020/12/17 11:07:08;;;;;;;20.00;12.23;;;3.20;93.30;;;;;;5071579;28;20551;-73
2020/12/17 11:10:00;;;;;;;23.70;13.13;;;3.30;93.30;;;;;;5071051;28;20436;-73
2020/12/17 11:12:37;;;;;;;23.55;14.48;;;3.40;93.10;;;;;;5071358;28;20564;-73
2020/12/17 11:15:30;;;;;;;22.70;14.70;;;3.30;93.10;;;;;;5065715;28;21042;-73
2020/12/17 11:18:25;;;;;;;24.52;15.02;;;3.20;93.20;;;;;;5070225;28;20884;-73
2020/12/17 11:20:54;;;;;;;23.20;14.57;;;3.20;93.40;;;;;;5070265;28;20424;-74
2020/12/17 11:23:30;;;;;;;24.27;14.23;;;3.30;93.20;;;;;;5073279;28;20430;-73
2020/12/17 11:26:05;;;;;;;22.38;14.15;;;3.30;93.40;;;;;;5070064;28;20426;-73
2020/12/17 11:29:12;;;;;;;23.87;15.57;;;3.40;93.40;;;;;;5091487;28;20893;-73
2020/12/17 11:31:53;;;;;;;24.13;14.63;;;3.40;93.40;;;;;;5066657;28;20443;-73
2020/12/17 11:34:33;;;;;;;25.42;14.00;;;3.50;93.10;;;;;;5070390;28;20466;-74
2020/12/17 11:37:25;;;;;;;24.73;12.93;;;3.50;93.00;;;;;;5072489;28;20764;-73
2020/12/17 11:40:08;;;;;;;15.40;9.15;;;3.40;92.90;;;;;;5090884;28;20732;-73
2020/12/17 11:42:51;;;;;;;13.65;8.82;;;3.50;92.60;;;;;;5087511;28;20547;-73
2020/12/17 11:45:35;;;;;;;18.67;11.63;;;3.40;92.70;;;;;;5090686;28;20425;-73
2020/12/17 11:48:14;;;;;;;23.38;14.07;;;3.50;92.90;;;;;;5088494;28;20775;-73
2020/12/17 11:51:13;;;;;;;23.00;15.25;;;3.40;92.90;;;;;;5090785;28;20425;-73
2020/12/17 11:53:45;;;;;;;23.55;14.57;;;3.40;93.20;;;;;;5053260;28;20763;-73
2020/12/17 11:56:43;;;;;;;25.98;14.30;;;3.40;93.20;;;;;;5069479;28;20531;-72
2020/12/17 11:59:11;;;;;;;24.20;14.98;;;3.40;93.20;;;;;;5049636;28;20444;-72
2020/12/17 12:01:47;;;;;;;24.60;15.52;;;3.50;93.50;;;;;;5071062;28;20412;-72
2020/12/17 12:04:13;;;;;;;28.35;16.67;;;3.60;93.20;;;;;;5070734;28;20400;-72
2020/12/17 12:06:49;;;;;;;27.42;16.42;;;3.60;93.10;;;;;;5052864;28;20473;-72
2020/12/17 12:09:31;;;;;;;29.83;19.15;;;3.50;93.20;;;;;;5070721;28;20842;-72
2020/12/17 12:12:15;;;;;;;32.00;19.42;;;3.50;93.20;;;;;;5073754;28;20433;-75
2020/12/17 12:14:48;;;;;;;26.27;15.88;;;3.60;93.00;;;;;;5076258;28;20470;-72
2020/12/17 12:17:18;;;;;;;24.97;15.20;;;3.50;93.00;;;;;;5091023;28;20422;-72
2020/12/17 12:19:50;;;;;;;19.88;14.07;;;3.50;93.00;;;;;;5069336;28;20428;-72
2020/12/17 12:22:24;;;;;;;23.07;14.17;;;3.60;92.80;;;;;;5073069;28;20861;-73
2020/12/17 12:25:22;;;;;;;17.42;11.27;;;3.60;93.00;;;;;;5074249;28;21092;-73
2020/12/17 12:27:51;;;;;;;17.57;11.23;;;3.60;92.50;;;;;;5073069;28;20410;-72
2020/12/17 12:30:20;;;;;;;18.08;11.50;;;3.70;92.70;;;;;;5069297;28;20418;-72
2020/12/17 12:32:48;;;;;;;16.60;11.07;;;3.60;92.40;;;;;;5072917;28;20433;-75
2020/12/17 12:35:18;;;;;;;16.98;10.75;;;3.60;92.40;;;;;;5069391;28;20674;-72
2020/12/17 12:37:49;;;;;;;16.05;10.50;;;3.60;92.50;;;;;;5073173;28;20445;-72
2020/12/17 12:40:20;;;;;;;15.27;10.05;;;3.60;92.30;;;;;;5069646;28;20426;-72
2020/12/17 12:42:48;;;;;;;14.38;9.43;;;3.60;92.40;;;;;;5090170;28;20410;-72
2020/12/17 12:45:15;;;;;;;16.65;10.70;;;3.60;92.40;;;;;;5069719;28;20497;-72
2020/12/17 12:47:43;;;;;;;16.23;10.88;;;3.60;92.20;;;;;;5072778;28;20889;-74
2020/12/17 12:50:16;;;;;;;22.77;17.20;;;3.70;92.30;;;;;;5086621;28;20897;-72
2020/12/17 12:52:48;;;;;;;15.18;10.82;;;3.70;92.30;;;;;;5073208;28;20460;-72
2020/12/17 12:55:33;;;;;;;16.65;11.10;;;3.70;92.00;;;;;;5069594;28;20493;-72
2020/12/17 12:58:00;;;;;;;16.38;11.80;;;3.70;92.30;;;;;;5089793;28;20731;-72
2020/12/17 13:00:30;;;;;;;20.93;12.57;;;3.60;92.50;;;;;;5068900;28;20876;-72
2020/12/17 13:03:06;;;;;;;21.13;12.82;;;3.70;92.60;;;;;;5072536;28;20422;-72